Crescent City, Florida
Current Conditions -  °F | °C
As of 11:55 AM on Friday 28 Nov 2014 (Local Time) from K28J Reporting Station
Clear Clear  
Wind Chill: 54°   Ceiling: Unl
Heat Index: 54°   Visibility: 10mi
Dew Point: 37°   Wind: 9mph
Humidity: 54%   Direction: 40°NE
Pressure: 30.35"   Gusts: NA
Location:  29.43°N, 81.51°W
Report Text: K28J 281655Z AUTO 04008KT 10SM CLR 12/03 A3035 RMK AO2
Loading
Personal Weather Stations






























Interactive Weather Map New forecast layout! Learn more

10-Day Weather Forecast

Advertisements
Track Severe Weather on mobile